createdAt,value
2022-10-04T00:01:49.926Z,12.60
2022-10-04T00:04:34.509Z,12.60
2022-10-04T00:07:24.155Z,12.60
2022-10-04T00:09:53.147Z,12.60
2022-10-04T00:12:26.010Z,12.50
2022-10-04T00:14:58.286Z,12.50
2022-10-04T00:17:28.168Z,12.50
2022-10-04T00:19:56.096Z,12.50
2022-10-04T00:22:32.562Z,12.50
2022-10-04T00:25:09.922Z,12.60
2022-10-04T00:27:38.343Z,12.60
2022-10-04T00:30:05.243Z,12.60
2022-10-04T00:32:47.932Z,12.50
2022-10-04T00:35:30.112Z,12.60
2022-10-04T00:38:14.680Z,12.60
2022-10-04T00:41:16.509Z,12.60
2022-10-04T00:43:48.366Z,12.50
2022-10-04T00:46:25.603Z,12.50
2022-10-04T00:48:58.580Z,12.50
2022-10-04T00:51:42.646Z,12.50
2022-10-04T00:54:41.487Z,12.40
2022-10-04T00:57:15.823Z,12.40
2022-10-04T00:59:47.429Z,12.40
2022-10-04T01:02:20.143Z,12.40
2022-10-04T01:05:04.860Z,12.30
2022-10-04T01:08:04.516Z,12.30
2022-10-04T01:11:00.488Z,12.30
2022-10-04T01:13:37.101Z,12.30
2022-10-04T01:16:33.532Z,12.30
2022-10-04T01:19:24.998Z,12.40
2022-10-04T01:21:59.864Z,12.40
2022-10-04T01:24:37.169Z,12.40
2022-10-04T01:27:04.981Z,12.40
2022-10-04T01:29:32.652Z,12.40
2022-10-04T01:32:00.818Z,12.30
2022-10-04T01:34:30.311Z,12.30
2022-10-04T01:37:00.024Z,12.30
2022-10-04T01:39:28.629Z,12.30
2022-10-04T01:41:55.583Z,12.30
2022-10-04T01:44:31.956Z,12.30
2022-10-04T01:47:06.282Z,12.20
2022-10-04T01:49:36.346Z,12.20
2022-10-04T01:52:16.134Z,12.20
2022-10-04T01:54:46.872Z,12.20
2022-10-04T01:57:18.235Z,12.10
2022-10-04T02:00:08.820Z,12.10
2022-10-04T02:02:57.848Z,12.10
2022-10-04T02:05:33.386Z,12.00
2022-10-04T02:08:11.703Z,12.00
2022-10-04T02:10:43.410Z,12.00
2022-10-04T02:13:19.037Z,12.00
2022-10-04T02:15:47.671Z,12.10
2022-10-04T02:18:23.474Z,12.00
2022-10-04T02:20:51.547Z,12.10
2022-10-04T02:23:21.232Z,12.10
2022-10-04T02:25:48.527Z,12.10
2022-10-04T02:28:16.319Z,12.00
2022-10-04T02:31:10.644Z,12.00
2022-10-04T02:33:43.705Z,12.00
2022-10-04T02:36:12.006Z,12.00
2022-10-04T02:39:10.967Z,12.00
2022-10-04T02:41:57.831Z,12.00
2022-10-04T02:44:34.203Z,11.90
2022-10-04T02:47:16.351Z,11.90
2022-10-04T02:49:53.955Z,11.80
2022-10-04T02:52:31.847Z,11.80
2022-10-04T02:55:06.170Z,11.80
2022-10-04T02:57:36.689Z,11.70
2022-10-04T03:00:14.484Z,11.70
2022-10-04T03:02:41.506Z,11.70
2022-10-04T03:05:11.961Z,11.60
2022-10-04T03:07:39.847Z,11.60
2022-10-04T03:10:12.844Z,11.60
2022-10-04T03:12:40.986Z,11.60
2022-10-04T03:15:10.923Z,11.50
2022-10-04T03:17:40.227Z,11.50
2022-10-04T03:20:11.185Z,11.50
2022-10-04T03:22:43.708Z,11.50
2022-10-04T03:25:30.356Z,11.50
2022-10-04T03:28:02.189Z,11.40
2022-10-04T03:30:31.995Z,11.40
2022-10-04T03:32:59.867Z,11.40
2022-10-04T03:35:34.841Z,11.30
2022-10-04T03:38:06.872Z,11.30
2022-10-04T03:40:34.610Z,11.30
2022-10-04T03:43:04.283Z,11.20
2022-10-04T03:45:33.374Z,11.20
2022-10-04T03:48:06.084Z,11.10
2022-10-04T03:50:41.129Z,11.10
2022-10-04T03:53:16.271Z,11.10
2022-10-04T03:55:45.818Z,11.00
2022-10-04T03:58:17.111Z,11.00
2022-10-04T04:00:56.506Z,10.90
2022-10-04T04:03:28.199Z,10.90
2022-10-04T04:05:59.973Z,10.80
2022-10-04T04:08:26.833Z,10.80
2022-10-04T04:10:57.690Z,10.70
2022-10-04T04:13:29.735Z,10.70
2022-10-04T04:16:00.627Z,10.60
2022-10-04T04:18:33.957Z,10.60
2022-10-04T04:21:03.298Z,10.60
2022-10-04T04:23:34.686Z,10.50
2022-10-04T04:26:23.666Z,10.50
2022-10-04T04:29:25.955Z,10.50
2022-10-04T04:31:57.595Z,10.40
2022-10-04T04:34:29.969Z,10.40
2022-10-04T04:37:02.510Z,10.40
2022-10-04T04:39:34.323Z,10.30
2022-10-04T04:42:06.881Z,10.30
2022-10-04T04:44:34.097Z,10.30
2022-10-04T04:47:01.200Z,10.20
2022-10-04T04:49:33.159Z,10.10
2022-10-04T04:52:00.106Z,10.10
2022-10-04T04:54:27.866Z,10.10
2022-10-04T04:56:57.474Z,10.10
2022-10-04T04:59:27.733Z,10.10
2022-10-04T05:01:54.694Z,10.00
2022-10-04T05:04:23.731Z,10.00
2022-10-04T05:07:15.601Z,10.00
2022-10-04T05:09:42.452Z,10.00
2022-10-04T05:12:15.509Z,10.00
2022-10-04T05:14:48.139Z,9.90
2022-10-04T05:17:25.133Z,9.90
2022-10-04T05:19:56.437Z,9.90
2022-10-04T05:22:25.525Z,9.90
2022-10-04T05:25:02.880Z,9.90
2022-10-04T05:27:42.784Z,9.90
2022-10-04T05:30:30.257Z,9.90
2022-10-04T05:33:12.053Z,9.90
2022-10-04T05:36:02.292Z,9.90
2022-10-04T05:38:46.666Z,9.90
2022-10-04T05:41:33.300Z,9.90
2022-10-04T05:44:02.673Z,9.90
2022-10-04T05:46:34.898Z,9.80
2022-10-04T05:49:18.132Z,9.80
2022-10-04T05:52:03.841Z,9.80
2022-10-04T05:54:35.883Z,9.80
2022-10-04T05:57:31.672Z,9.80
2022-10-04T06:00:12.975Z,9.80
2022-10-04T06:03:07.796Z,9.90
2022-10-04T06:05:43.700Z,9.90
2022-10-04T06:08:35.162Z,9.80
2022-10-04T06:11:23.942Z,9.90
2022-10-04T06:14:14.948Z,9.90
2022-10-04T06:16:53.870Z,9.90
2022-10-04T06:19:49.865Z,9.90
2022-10-04T06:22:20.896Z,9.90
2022-10-04T06:24:54.825Z,9.90
2022-10-04T06:27:41.169Z,9.90
2022-10-04T06:30:14.960Z,10.00
2022-10-04T06:33:14.112Z,10.00
2022-10-04T06:35:50.212Z,10.00
2022-10-04T06:38:46.201Z,10.00
2022-10-04T06:41:24.330Z,10.10
2022-10-04T06:43:54.589Z,10.10
2022-10-04T06:46:21.481Z,10.10
2022-10-04T06:49:00.440Z,10.10
2022-10-04T06:51:49.734Z,10.20
2022-10-04T06:54:19.489Z,10.20
2022-10-04T06:57:05.245Z,10.20
2022-10-04T06:59:48.371Z,10.20
2022-10-04T07:02:38.587Z,10.20
2022-10-04T07:05:12.566Z,10.20
2022-10-04T07:07:47.474Z,10.20
2022-10-04T07:10:31.553Z,10.20
2022-10-04T07:13:04.808Z,10.20
2022-10-04T07:15:50.752Z,10.20
2022-10-04T07:18:29.037Z,10.30
2022-10-04T07:21:17.074Z,10.30
2022-10-04T07:23:48.378Z,10.30
2022-10-04T07:26:38.157Z,10.40
2022-10-04T07:29:22.025Z,10.40
2022-10-04T07:32:12.237Z,10.50
2022-10-04T07:35:04.896Z,10.60
2022-10-04T07:37:45.167Z,10.70
2022-10-04T07:40:22.588Z,10.80
2022-10-04T07:42:54.963Z,10.80
2022-10-04T07:45:29.860Z,10.90
2022-10-04T07:48:15.756Z,11.00
2022-10-04T07:51:13.473Z,11.10
2022-10-04T07:53:55.379Z,11.20
2022-10-04T07:56:36.269Z,11.30
2022-10-04T07:59:06.256Z,11.40
2022-10-04T08:02:03.266Z,11.50
2022-10-04T08:04:49.604Z,11.60
2022-10-04T08:07:19.432Z,11.60
2022-10-04T08:10:31.935Z,11.70
2022-10-04T08:13:25.562Z,11.80
2022-10-04T08:15:53.154Z,11.80
2022-10-04T08:18:56.956Z,11.90
2022-10-04T08:21:44.647Z,12.00
2022-10-04T08:24:43.616Z,12.10
2022-10-04T08:27:22.643Z,12.20
2022-10-04T08:30:13.941Z,12.30
2022-10-04T08:33:13.876Z,12.40
2022-10-04T08:36:13.648Z,12.50
2022-10-04T08:38:49.222Z,12.60
2022-10-04T08:41:44.084Z,12.70
2022-10-04T08:44:32.348Z,12.70
2022-10-04T08:47:10.635Z,12.80
2022-10-04T08:49:58.033Z,12.80
2022-10-04T08:52:40.134Z,12.90
2022-10-04T08:55:50.766Z,12.90
2022-10-04T08:58:45.449Z,13.00
2022-10-04T09:01:49.970Z,13.10
2022-10-04T09:04:29.216Z,13.10
2022-10-04T09:07:36.621Z,13.20
2022-10-04T09:10:24.879Z,13.30
2022-10-04T09:13:13.546Z,13.40
2022-10-04T09:15:51.637Z,13.40
2022-10-04T09:18:23.105Z,13.50
2022-10-04T09:21:16.266Z,13.50
2022-10-04T09:23:43.194Z,13.60
2022-10-04T09:26:29.054Z,13.60
2022-10-04T09:29:43.090Z,13.70
2022-10-04T09:32:19.024Z,13.70
2022-10-04T09:35:10.176Z,13.70
2022-10-04T09:38:16.792Z,13.80
2022-10-04T09:41:13.779Z,13.90
2022-10-04T09:44:06.598Z,13.90
2022-10-04T09:47:04.595Z,14.00
2022-10-04T09:50:11.852Z,14.10
2022-10-04T09:52:44.756Z,14.10
2022-10-04T09:55:14.394Z,14.20
2022-10-04T09:58:15.080Z,14.20
2022-10-04T10:01:04.189Z,14.30
2022-10-04T10:03:55.040Z,14.40
2022-10-04T10:06:36.347Z,14.40
2022-10-04T10:09:05.147Z,14.50
2022-10-04T10:12:38.738Z,14.50
2022-10-04T10:15:24.531Z,14.60
2022-10-04T10:17:57.468Z,14.60
2022-10-04T10:20:33.051Z,14.70
2022-10-04T10:23:15.804Z,14.80
2022-10-04T10:26:01.610Z,14.90
2022-10-04T10:28:46.490Z,14.90
2022-10-04T10:31:47.964Z,14.90
2022-10-04T10:34:52.359Z,15.00
2022-10-04T10:38:04.824Z,15.00
2022-10-04T10:40:59.958Z,15.10
2022-10-04T10:43:51.432Z,15.10
2022-10-04T10:46:45.037Z,15.10
2022-10-04T10:49:32.889Z,15.20
2022-10-04T10:52:34.156Z,15.30
2022-10-04T10:55:30.704Z,15.30
2022-10-04T10:58:40.099Z,15.40
2022-10-04T11:01:45.606Z,15.50
2022-10-04T11:04:35.713Z,15.60
2022-10-04T11:07:30.460Z,15.60
2022-10-04T11:10:21.587Z,15.60
2022-10-04T11:13:19.157Z,15.70
2022-10-04T11:15:54.940Z,15.80
2022-10-04T11:18:46.626Z,15.80
2022-10-04T11:21:39.301Z,15.90
2022-10-04T11:24:51.204Z,15.90
2022-10-04T11:27:18.338Z,15.90
2022-10-04T11:29:56.043Z,15.90
2022-10-04T11:33:19.840Z,15.90
2022-10-04T11:35:55.373Z,16.00
2022-10-04T11:42:37.109Z,16.10
2022-10-04T11:45:33.449Z,16.10
2022-10-04T11:48:23.130Z,16.10
2022-10-04T11:52:10.246Z,16.20
2022-10-04T11:55:33.980Z,16.30
2022-10-04T11:58:13.436Z,16.30
2022-10-04T12:01:14.280Z,16.40
2022-10-04T12:04:09.642Z,16.50
2022-10-04T12:10:44.486Z,16.70
2022-10-04T12:18:36.635Z,16.90
2022-10-04T12:22:10.063Z,17.10
2022-10-04T12:26:01.199Z,17.30
2022-10-04T12:29:14.629Z,17.40
2022-10-04T12:36:20.733Z,17.70
2022-10-04T12:39:12.542Z,17.70
2022-10-04T12:42:18.906Z,17.60
2022-10-04T12:44:59.321Z,17.70
2022-10-04T12:47:57.299Z,17.60
2022-10-04T12:50:35.832Z,17.70
2022-10-04T12:54:11.613Z,17.80
2022-10-04T12:57:08.052Z,17.90
2022-10-04T13:00:13.237Z,18.10
2022-10-04T13:02:49.310Z,18.20
2022-10-04T13:05:48.555Z,18.30
2022-10-04T13:09:03.712Z,18.30
2022-10-04T13:12:12.968Z,18.30
2022-10-04T13:14:39.964Z,18.30
2022-10-04T13:17:40.353Z,18.10
2022-10-04T13:20:29.220Z,18.10
2022-10-04T13:23:36.359Z,18.00
2022-10-04T13:26:41.042Z,17.90
2022-10-04T13:29:58.844Z,17.80
2022-10-04T13:33:29.407Z,17.80
2022-10-04T13:40:30.953Z,17.80
2022-10-04T13:44:07.552Z,17.80
2022-10-04T13:47:20.531Z,17.80
2022-10-04T13:50:17.607Z,17.80
2022-10-04T13:53:32.729Z,17.80
2022-10-04T13:56:28.092Z,17.90
2022-10-04T13:59:18.701Z,17.90
2022-10-04T14:02:34.129Z,17.90
2022-10-04T14:05:22.743Z,18.00
2022-10-04T14:08:09.156Z,18.00
2022-10-04T14:10:57.827Z,18.00
2022-10-04T14:13:40.723Z,18.10
2022-10-04T14:16:37.058Z,18.20
2022-10-04T14:19:34.947Z,18.20
2022-10-04T14:22:24.053Z,18.30
2022-10-04T14:25:22.199Z,18.30
2022-10-04T14:28:33.197Z,18.30
2022-10-04T14:31:21.162Z,18.30
2022-10-04T14:34:31.133Z,18.30
2022-10-04T14:37:19.453Z,18.20
2022-10-04T14:40:58.602Z,18.20
2022-10-04T14:44:05.625Z,18.20
2022-10-04T14:46:54.862Z,18.20
2022-10-04T14:49:37.757Z,18.10
2022-10-04T14:56:59.209Z,18.20
2022-10-04T15:00:06.268Z,18.20
2022-10-04T15:03:14.485Z,18.20
2022-10-04T15:06:14.729Z,18.20
2022-10-04T15:13:11.819Z,18.30
2022-10-04T15:16:13.989Z,18.20
2022-10-04T15:18:54.366Z,18.30
2022-10-04T15:21:32.678Z,18.30
2022-10-04T15:24:25.587Z,18.30
2022-10-04T15:27:18.472Z,18.30
2022-10-04T15:30:06.983Z,18.20
2022-10-04T15:33:00.780Z,18.20
2022-10-04T15:36:02.482Z,18.20
2022-10-04T15:38:47.506Z,18.10
2022-10-04T15:41:36.036Z,18.20
2022-10-04T15:44:11.954Z,18.10
2022-10-04T15:47:17.828Z,18.00
2022-10-04T15:50:14.974Z,18.00
2022-10-04T15:52:53.806Z,17.90
2022-10-04T15:55:34.140Z,17.80
2022-10-04T15:58:34.635Z,17.70
2022-10-04T16:01:49.210Z,17.70
2022-10-04T16:04:48.045Z,17.60
2022-10-04T16:07:59.193Z,17.50
2022-10-04T16:11:24.760Z,17.40
2022-10-04T16:14:05.196Z,17.30
2022-10-04T16:16:48.607Z,17.20
2022-10-04T16:19:38.256Z,17.10
2022-10-04T16:22:28.094Z,17.00
2022-10-04T16:24:58.233Z,16.90
2022-10-04T16:27:42.844Z,16.80
2022-10-04T16:30:29.052Z,16.80
2022-10-04T16:32:59.497Z,16.70
2022-10-04T16:35:40.181Z,16.70
2022-10-04T16:38:13.418Z,16.60
2022-10-04T16:41:15.942Z,16.50
2022-10-04T16:43:54.805Z,16.50
2022-10-04T16:49:57.206Z,16.20
2022-10-04T16:52:48.518Z,16.10
2022-10-04T16:55:34.989Z,16.00
2022-10-04T16:58:26.818Z,15.90
2022-10-04T17:01:21.980Z,15.80
2022-10-04T17:04:38.825Z,15.70
2022-10-04T17:07:55.934Z,15.60
2022-10-04T17:10:37.547Z,15.40
2022-10-04T17:13:26.637Z,15.30
2022-10-04T17:16:14.818Z,15.20
2022-10-04T17:19:13.547Z,15.10
2022-10-04T17:22:05.963Z,15.00
2022-10-04T17:25:19.027Z,15.00
2022-10-04T17:28:05.561Z,14.90
2022-10-04T17:31:06.029Z,14.80
2022-10-04T17:34:14.674Z,14.80
2022-10-04T17:37:23.462Z,14.90
2022-10-04T17:40:08.861Z,14.90
2022-10-04T17:43:17.752Z,14.90
2022-10-04T17:45:50.883Z,14.90
2022-10-04T17:48:49.890Z,14.80
2022-10-04T17:51:41.154Z,14.80
2022-10-04T17:54:37.968Z,14.80
2022-10-04T17:57:04.916Z,14.70
2022-10-04T17:59:49.879Z,14.60
2022-10-04T18:02:32.742Z,14.60
2022-10-04T18:05:14.773Z,14.60
2022-10-04T18:07:52.404Z,14.60
2022-10-04T18:10:46.370Z,14.60
2022-10-04T18:13:17.500Z,14.60
2022-10-04T18:15:57.672Z,14.50
2022-10-04T18:18:37.001Z,14.50
2022-10-04T18:21:22.597Z,14.50
2022-10-04T18:24:17.072Z,14.50
2022-10-04T18:27:04.965Z,14.50
2022-10-04T18:30:00.586Z,14.50
2022-10-04T18:32:27.728Z,14.40
2022-10-04T18:35:02.599Z,14.40
2022-10-04T18:37:39.163Z,14.40
2022-10-04T18:40:44.723Z,14.30
2022-10-04T18:43:30.854Z,14.30
2022-10-04T18:46:04.500Z,14.20
2022-10-04T18:48:53.446Z,14.20
2022-10-04T18:51:42.705Z,14.20
2022-10-04T18:54:22.774Z,14.30
2022-10-04T18:57:43.857Z,14.30
2022-10-04T19:00:43.559Z,14.50
2022-10-04T19:03:44.992Z,14.50
2022-10-04T19:06:32.289Z,14.60
2022-10-04T19:09:10.689Z,14.70
2022-10-04T19:11:56.315Z,14.70
2022-10-04T19:14:40.554Z,14.80
2022-10-04T19:17:10.627Z,14.80
2022-10-04T19:20:19.146Z,14.80
2022-10-04T19:22:54.019Z,14.90
2022-10-04T19:26:33.198Z,14.90
2022-10-04T19:29:23.665Z,14.90
2022-10-04T19:32:39.180Z,15.00
2022-10-04T19:36:01.938Z,15.00
2022-10-04T19:43:33.245Z,15.10
2022-10-04T19:46:02.325Z,15.10
2022-10-04T19:48:38.970Z,15.10
2022-10-04T19:51:24.442Z,15.20
2022-10-04T19:53:57.935Z,15.30
2022-10-04T19:56:29.623Z,15.30
2022-10-04T19:59:15.853Z,15.40
2022-10-04T20:01:45.885Z,15.40
2022-10-04T20:04:35.665Z,15.50
2022-10-04T20:07:19.402Z,15.50
2022-10-04T20:09:55.550Z,15.50
2022-10-04T20:12:43.078Z,15.60
2022-10-04T20:15:28.407Z,15.60
2022-10-04T20:17:56.392Z,15.60
2022-10-04T20:20:38.845Z,15.60
2022-10-04T20:27:59.882Z,15.60
2022-10-04T20:31:06.621Z,15.60
2022-10-04T20:33:36.719Z,15.60
2022-10-04T20:36:09.198Z,15.60
2022-10-04T20:38:59.674Z,15.60
2022-10-04T20:41:30.531Z,15.70
2022-10-04T20:44:01.509Z,15.70
2022-10-04T20:46:53.847Z,15.70
2022-10-04T20:49:20.884Z,15.70
2022-10-04T20:51:49.794Z,15.70
2022-10-04T20:54:21.794Z,15.70
2022-10-04T20:56:51.696Z,15.70
2022-10-04T21:00:12.225Z,15.70
2022-10-04T21:02:39.524Z,15.70
2022-10-04T21:05:24.653Z,15.70
2022-10-04T21:16:37.873Z,15.70
2022-10-04T21:22:30.985Z,15.80
2022-10-04T21:25:05.183Z,15.80
2022-10-04T21:27:34.669Z,15.80
2022-10-04T21:30:26.347Z,15.80
2022-10-04T21:32:53.390Z,15.80
2022-10-04T21:35:20.364Z,15.80
2022-10-04T21:37:56.247Z,15.80
2022-10-04T21:40:23.923Z,15.80
2022-10-04T21:42:53.989Z,15.80
2022-10-04T21:45:26.881Z,15.80
2022-10-04T21:47:55.379Z,15.80
2022-10-04T21:50:22.557Z,15.80
2022-10-04T21:52:52.863Z,15.80
2022-10-04T21:55:22.453Z,15.80
2022-10-04T21:57:49.713Z,15.80
2022-10-04T22:00:16.752Z,15.80
2022-10-04T22:08:07.132Z,15.80
2022-10-04T22:10:48.244Z,15.80
2022-10-04T22:13:15.687Z,15.80
2022-10-04T22:16:09.906Z,15.70
2022-10-04T22:18:45.363Z,15.80
2022-10-04T22:21:15.888Z,15.80
2022-10-04T22:23:56.104Z,15.80
2022-10-04T22:26:25.755Z,15.80
2022-10-04T22:28:55.622Z,15.80
2022-10-04T22:31:27.107Z,15.70
2022-10-04T22:33:55.457Z,15.70
2022-10-04T22:36:25.193Z,15.70
2022-10-04T22:39:00.042Z,15.70
2022-10-04T22:41:33.079Z,15.70
2022-10-04T22:44:10.603Z,15.70
2022-10-04T22:46:43.340Z,15.70
2022-10-04T22:49:15.628Z,15.70
2022-10-04T22:51:44.653Z,15.70
2022-10-04T22:54:17.413Z,15.70
2022-10-04T22:56:44.705Z,15.70
2022-10-04T22:59:17.127Z,15.60
2022-10-04T23:01:44.397Z,15.60
2022-10-04T23:04:23.006Z,15.70
2022-10-04T23:06:53.017Z,15.70
2022-10-04T23:09:31.007Z,15.70
2022-10-04T23:11:58.213Z,15.70
2022-10-04T23:14:28.016Z,15.70
2022-10-04T23:16:55.266Z,15.60
2022-10-04T23:19:22.331Z,15.60
2022-10-04T23:21:50.086Z,15.70
2022-10-04T23:24:19.214Z,15.60
2022-10-04T23:26:49.506Z,15.60
2022-10-04T23:29:22.428Z,15.60
2022-10-04T23:31:50.331Z,15.60
2022-10-04T23:34:21.149Z,15.60
2022-10-04T23:36:49.464Z,15.60
2022-10-04T23:39:28.725Z,15.60
2022-10-04T23:41:56.780Z,15.60
2022-10-04T23:44:38.879Z,15.60
2022-10-04T23:47:13.673Z,15.60
2022-10-04T23:49:41.797Z,15.60
2022-10-04T23:52:18.631Z,15.60
2022-10-04T23:54:46.223Z,15.60
2022-10-04T23:57:21.112Z,15.60
2022-10-04T23:59:48.673Z,15.60
